createdAt,value
2023-01-30T00:00:25.930Z,100478.94
2023-01-30T00:05:27.643Z,100477.22
2023-01-30T00:10:29.450Z,100469.09
2023-01-30T00:15:33.375Z,100466.06
2023-01-30T00:20:35.193Z,100461.16
2023-01-30T00:25:36.932Z,100453.41
2023-01-30T00:30:38.849Z,100443.84
2023-01-30T00:35:47.038Z,100438.09
2023-01-30T00:40:48.854Z,100436.25
2023-01-30T00:46:10.998Z,100423.97
2023-01-30T00:51:12.719Z,100413.91
2023-01-30T00:56:14.508Z,100408.53
2023-01-30T01:01:18.130Z,100402.91
2023-01-30T01:06:19.963Z,100397.22
2023-01-30T01:11:24.674Z,100392.44
2023-01-30T01:16:28.447Z,100388.16
2023-01-30T01:21:32.839Z,100376.38
2023-01-30T01:26:34.528Z,100362.88
2023-01-30T01:31:37.597Z,100357.13
2023-01-30T01:36:53.122Z,100359.22
2023-01-30T01:41:56.140Z,100338.00
2023-01-30T01:46:59.992Z,100343.25
2023-01-30T01:52:11.468Z,100333.69
2023-01-30T01:57:19.863Z,100331.63
2023-01-30T02:02:22.181Z,100318.72
2023-01-30T02:07:26.228Z,100300.59
2023-01-30T02:12:28.128Z,100296.56
2023-01-30T02:17:30.160Z,100292.50
2023-01-30T02:23:10.251Z,100284.66
2023-01-30T02:28:24.133Z,100265.13
2023-01-30T02:33:57.329Z,100258.16
2023-01-30T02:39:32.601Z,100261.44
2023-01-30T02:44:42.177Z,100262.44
2023-01-30T02:50:23.459Z,100259.13
2023-01-30T02:55:28.194Z,100241.97
2023-01-30T03:01:12.504Z,100225.06
2023-01-30T03:07:30.128Z,100218.44
2023-01-30T03:12:49.295Z,100212.59
2023-01-30T03:17:51.551Z,100207.69
2023-01-30T03:22:55.138Z,100205.22
2023-01-30T03:27:57.636Z,100195.31
2023-01-30T03:32:59.650Z,100201.75
2023-01-30T03:38:02.186Z,100197.34
2023-01-30T03:43:04.478Z,100180.44
2023-01-30T03:48:07.102Z,100177.25
2023-01-30T03:53:08.853Z,100165.94
2023-01-30T03:58:11.013Z,100178.00
2023-01-30T04:03:15.686Z,100174.28
2023-01-30T04:08:17.746Z,100151.72
2023-01-30T04:13:19.516Z,100150.84
2023-01-30T04:18:21.794Z,100143.38
2023-01-30T04:23:32.623Z,100153.66
2023-01-30T04:28:34.962Z,100139.16
2023-01-30T04:33:37.257Z,100137.03
2023-01-30T04:38:41.361Z,100132.13
2023-01-30T04:43:43.149Z,100115.06
2023-01-30T04:49:14.284Z,100119.97
2023-01-30T04:54:16.266Z,100124.44
2023-01-30T04:59:18.110Z,100122.75
2023-01-30T05:04:22.022Z,100119.78
2023-01-30T05:09:23.772Z,100105.50
2023-01-30T05:14:25.395Z,100115.81
2023-01-30T05:19:27.072Z,100110.75
2023-01-30T05:24:28.976Z,100101.16
2023-01-30T05:29:30.660Z,100091.59
2023-01-30T05:34:32.361Z,100087.75
2023-01-30T05:39:34.081Z,100070.91
2023-01-30T05:44:35.707Z,100073.78
2023-01-30T05:49:37.296Z,100062.78
2023-01-30T05:54:38.957Z,100069.63
2023-01-30T05:59:40.551Z,100079.78
2023-01-30T06:04:42.448Z,100074.31
2023-01-30T06:09:44.032Z,100058.94
2023-01-30T06:14:45.669Z,100062.34
2023-01-30T06:19:47.283Z,100064.50
2023-01-30T06:24:48.917Z,100093.97
2023-01-30T06:29:50.540Z,100078.47
2023-01-30T06:34:52.144Z,100065.78
2023-01-30T06:39:53.798Z,100041.59
2023-01-30T06:44:55.511Z,100051.84
2023-01-30T06:49:57.104Z,100039.03
2023-01-30T06:54:58.901Z,100027.50
2023-01-30T07:00:00.554Z,100049.09
2023-01-30T07:05:03.677Z,100047.22
2023-01-30T07:10:08.958Z,100037.28
2023-01-30T07:15:11.071Z,100026.53
2023-01-30T07:20:13.995Z,100037.63
2023-01-30T07:25:16.694Z,100035.25
2023-01-30T07:30:18.911Z,100043.28
2023-01-30T07:35:23.009Z,100049.59
2023-01-30T07:40:25.584Z,100077.22
2023-01-30T07:45:36.677Z,100071.19
2023-01-30T07:50:38.627Z,100067.63
2023-01-30T07:55:40.923Z,100046.75
2023-01-30T08:00:42.867Z,100038.41
2023-01-30T08:05:47.321Z,100018.28
2023-01-30T08:10:49.422Z,100044.56
2023-01-30T08:15:51.406Z,100027.69
2023-01-30T08:20:57.423Z,100018.06
2023-01-30T08:26:02.080Z,100007.63
2023-01-30T08:31:09.898Z,99999.66
2023-01-30T08:36:11.611Z,99981.41
2023-01-30T08:41:13.315Z,99964.00
2023-01-30T08:46:15.095Z,99951.91
2023-01-30T08:51:17.033Z,99923.00
2023-01-30T08:56:18.762Z,99916.03
2023-01-30T09:01:20.505Z,99900.50
2023-01-30T09:06:23.349Z,99882.34
2023-01-30T09:11:26.195Z,99881.09
2023-01-30T09:16:27.884Z,99868.63
2023-01-30T09:21:29.715Z,99877.28
2023-01-30T09:26:32.083Z,99863.28
2023-01-30T09:31:34.018Z,99862.25
2023-01-30T09:36:35.767Z,99844.19
2023-01-30T09:41:46.526Z,99838.34
2023-01-30T09:47:05.892Z,99811.25
2023-01-30T09:52:41.347Z,99788.66
2023-01-30T09:57:45.303Z,99760.41
2023-01-30T10:03:06.124Z,99759.97
2023-01-30T10:08:26.399Z,99765.22
2023-01-30T10:13:49.435Z,99744.53
2023-01-30T10:19:35.152Z,99735.28
2023-01-30T10:24:55.490Z,99716.28
2023-01-30T10:30:01.697Z,99702.53
2023-01-30T10:35:19.087Z,99677.69
2023-01-30T10:40:29.543Z,99678.38
2023-01-30T10:45:41.608Z,99656.97
2023-01-30T10:50:48.553Z,99642.34
2023-01-30T10:55:57.643Z,99613.44
2023-01-30T11:01:05.458Z,99607.81
2023-01-30T11:06:26.002Z,99613.16
2023-01-30T11:11:41.132Z,99587.22
2023-01-30T11:16:45.801Z,99580.19
2023-01-30T11:21:53.674Z,99574.09
2023-01-30T11:26:56.701Z,99557.81
2023-01-30T11:32:03.878Z,99528.00
2023-01-30T11:37:32.055Z,99513.28
2023-01-30T11:42:33.688Z,99517.53
2023-01-30T11:47:35.655Z,99512.41
2023-01-30T11:52:38.932Z,99535.94
2023-01-30T11:57:51.219Z,99475.38
2023-01-30T12:02:54.693Z,99465.03
2023-01-30T12:08:14.828Z,99483.50
2023-01-30T12:13:23.825Z,99465.78
2023-01-30T12:18:25.287Z,99461.56
2023-01-30T12:23:53.322Z,99461.09
2023-01-30T12:29:32.479Z,99471.31
2023-01-30T12:34:34.310Z,99460.19
2023-01-30T12:39:57.750Z,99466.47
2023-01-30T12:45:24.065Z,99465.31
2023-01-30T12:50:46.161Z,99462.66
2023-01-30T12:55:47.701Z,99461.53
2023-01-30T13:01:22.346Z,99474.69
2023-01-30T13:06:48.647Z,99480.22
2023-01-30T13:12:09.793Z,99486.69
2023-01-30T13:17:48.347Z,99493.84
2023-01-30T13:23:06.312Z,99503.84
2023-01-30T13:28:26.175Z,99496.78
2023-01-30T13:33:35.138Z,99490.78
2023-01-30T13:38:41.933Z,99484.56
2023-01-30T13:43:50.297Z,99485.03
2023-01-30T13:49:07.936Z,99502.34
2023-01-30T13:54:21.993Z,99500.53
2023-01-30T13:59:36.003Z,99512.09
2023-01-30T14:04:40.785Z,99501.94
2023-01-30T14:09:51.563Z,99471.63
2023-01-30T14:15:15.529Z,99459.16
2023-01-30T14:20:20.822Z,99463.81
2023-01-30T14:25:22.678Z,99475.38
2023-01-30T14:30:37.886Z,99461.19
2023-01-30T14:35:39.563Z,99464.00
2023-01-30T14:40:45.978Z,99475.09
2023-01-30T14:45:53.852Z,99479.34
2023-01-30T14:51:29.477Z,99479.53
2023-01-30T14:57:01.203Z,99504.13
2023-01-30T15:02:15.047Z,99500.94
2023-01-30T15:07:20.420Z,99503.72
2023-01-30T15:13:00.229Z,99532.97
2023-01-30T15:18:17.221Z,99530.59
2023-01-30T15:23:56.390Z,99513.28
2023-01-30T15:29:34.592Z,99524.00
2023-01-30T15:34:36.343Z,99505.56
2023-01-30T15:39:38.064Z,99509.50
2023-01-30T15:44:53.448Z,99491.88
2023-01-30T15:49:59.862Z,99504.16
2023-01-30T15:55:02.293Z,99486.63
2023-01-30T16:00:09.239Z,99516.59
2023-01-30T16:05:25.401Z,99512.16
2023-01-30T16:10:30.653Z,99514.53
2023-01-30T16:15:41.842Z,99534.38
2023-01-30T16:21:00.807Z,99541.97
2023-01-30T16:26:04.821Z,99544.50
2023-01-30T16:31:09.595Z,99557.09
2023-01-30T16:36:20.474Z,99587.81
2023-01-30T16:41:41.126Z,99598.28
2023-01-30T16:46:42.822Z,99613.25
2023-01-30T16:51:45.598Z,99622.28
2023-01-30T16:56:51.665Z,99628.13
2023-01-30T17:01:55.384Z,99608.13
2023-01-30T17:07:04.183Z,99619.00
2023-01-30T17:12:28.048Z,99630.47
2023-01-30T17:17:29.725Z,99624.09
2023-01-30T17:22:31.810Z,99613.19
2023-01-30T17:27:34.248Z,99602.97
2023-01-30T17:32:35.822Z,99596.81
2023-01-30T17:37:37.422Z,99609.97
2023-01-30T17:42:39.376Z,99614.75
2023-01-30T17:47:41.133Z,99604.50
2023-01-30T17:52:42.726Z,99612.78
2023-01-30T17:57:47.471Z,99611.00
2023-01-30T18:02:49.352Z,99609.16
2023-01-30T18:07:51.018Z,99611.84
2023-01-30T18:12:52.632Z,99608.56
2023-01-30T18:17:56.472Z,99618.75
2023-01-30T18:22:58.078Z,99626.22
2023-01-30T18:27:59.715Z,99625.63
2023-01-30T18:33:01.571Z,99617.44
2023-01-30T18:38:04.792Z,99608.38
2023-01-30T18:43:06.853Z,99610.16
2023-01-30T18:48:08.989Z,99630.38
2023-01-30T18:53:10.693Z,99621.13
2023-01-30T18:58:12.354Z,99627.34
2023-01-30T19:03:15.947Z,99615.72
2023-01-30T19:08:17.578Z,99620.88
2023-01-30T19:13:34.280Z,99633.16
2023-01-30T19:18:36.405Z,99649.13
2023-01-30T19:23:38.983Z,99632.78
2023-01-30T19:28:44.782Z,99637.00
2023-01-30T19:33:48.590Z,99644.56
2023-01-30T19:38:51.884Z,99659.50
2023-01-30T19:43:55.305Z,99659.06
2023-01-30T19:48:57.907Z,99658.94
2023-01-30T19:54:02.354Z,99664.25
2023-01-30T19:59:04.519Z,99654.38
2023-01-30T20:04:07.355Z,99664.38
2023-01-30T20:09:11.827Z,99656.13
2023-01-30T20:14:13.647Z,99667.16
2023-01-30T20:19:17.306Z,99648.06
2023-01-30T20:24:19.349Z,99658.09
2023-01-30T20:29:21.286Z,99655.28
2023-01-30T20:34:23.140Z,99655.09
2023-01-30T20:39:24.990Z,99644.97
2023-01-30T20:44:27.042Z,99656.69
2023-01-30T20:49:28.919Z,99648.53
2023-01-30T20:54:30.486Z,99670.13
2023-01-30T20:59:32.289Z,99655.88
2023-01-30T21:04:34.001Z,99658.34
2023-01-30T21:09:36.065Z,99658.47
2023-01-30T21:14:38.345Z,99661.06
2023-01-30T21:19:41.976Z,99674.34
2023-01-30T21:24:45.229Z,99681.69
2023-01-30T21:29:46.979Z,99694.88
2023-01-30T21:34:48.620Z,99679.88
2023-01-30T21:40:08.855Z,99675.75
2023-01-30T21:45:10.533Z,99663.44
2023-01-30T21:50:12.221Z,99673.41
2023-01-30T21:55:13.903Z,99676.72
2023-01-30T22:00:15.679Z,99676.59
2023-01-30T22:05:17.897Z,99669.84
2023-01-30T22:10:19.779Z,99676.50
2023-01-30T22:15:22.795Z,99689.94
2023-01-30T22:20:24.437Z,99690.84
2023-01-30T22:25:26.000Z,99701.69
2023-01-30T22:30:27.609Z,99688.53
2023-01-30T22:35:29.279Z,99693.72
2023-01-30T22:40:30.965Z,99712.84
2023-01-30T22:45:35.100Z,99703.91
2023-01-30T22:50:37.040Z,99702.97
2023-01-30T22:55:39.246Z,99718.91
2023-01-30T23:00:40.921Z,99709.97
2023-01-30T23:05:42.601Z,99700.97
2023-01-30T23:10:44.228Z,99699.59
2023-01-30T23:15:46.875Z,99700.25
2023-01-30T23:20:48.486Z,99713.59
2023-01-30T23:25:50.097Z,99718.41
2023-01-30T23:30:51.872Z,99719.19
2023-01-30T23:35:53.470Z,99728.53
2023-01-30T23:41:11.378Z,99729.25
2023-01-30T23:46:31.290Z,99727.63
2023-01-30T23:51:35.497Z,99733.13
2023-01-30T23:56:40.199Z,99747.34
